sensor_id;sensor_type;location;lat;lon;timestamp;P1;durP1;ratioP1;P2;durP2;ratioP2
33104;SDS011;19476;51.448;6.674;2023-09-07T00:02:22;5.95;;;2.97;;
33104;SDS011;19476;51.448;6.674;2023-09-07T00:04:48;5.07;;;3.25;;
33104;SDS011;19476;51.448;6.674;2023-09-07T00:07:14;6.32;;;3.33;;
33104;SDS011;19476;51.448;6.674;2023-09-07T00:09:40;4.43;;;2.88;;
33104;SDS011;19476;51.448;6.674;2023-09-07T00:12:06;4.97;;;3.20;;
33104;SDS011;19476;51.448;6.674;2023-09-07T00:14:32;6.72;;;3.45;;
33104;SDS011;19476;51.448;6.674;2023-09-07T00:16:58;5.63;;;3.08;;
33104;SDS011;19476;51.448;6.674;2023-09-07T00:19:23;5.10;;;3.10;;
33104;SDS011;19476;51.448;6.674;2023-09-07T00:21:49;4.93;;;3.20;;
33104;SDS011;19476;51.448;6.674;2023-09-07T00:24:17;4.60;;;3.13;;
33104;SDS011;19476;51.448;6.674;2023-09-07T00:26:44;4.10;;;2.90;;
33104;SDS011;19476;51.448;6.674;2023-09-07T00:29:10;4.97;;;3.08;;
33104;SDS011;19476;51.448;6.674;2023-09-07T00:31:36;5.20;;;3.08;;
33104;SDS011;19476;51.448;6.674;2023-09-07T00:34:02;6.05;;;3.05;;
33104;SDS011;19476;51.448;6.674;2023-09-07T00:36:28;4.80;;;2.70;;
33104;SDS011;19476;51.448;6.674;2023-09-07T00:38:53;4.85;;;2.80;;
33104;SDS011;19476;51.448;6.674;2023-09-07T00:41:19;4.38;;;2.83;;
33104;SDS011;19476;51.448;6.674;2023-09-07T00:43:45;5.95;;;3.08;;
33104;SDS011;19476;51.448;6.674;2023-09-07T00:46:11;4.70;;;2.70;;
33104;SDS011;19476;51.448;6.674;2023-09-07T00:48:37;4.03;;;2.65;;
33104;SDS011;19476;51.448;6.674;2023-09-07T00:51:03;5.35;;;3.25;;
33104;SDS011;19476;51.448;6.674;2023-09-07T00:53:29;4.55;;;2.92;;
33104;SDS011;19476;51.448;6.674;2023-09-07T00:55:56;5.13;;;2.80;;
33104;SDS011;19476;51.448;6.674;2023-09-07T00:58:23;4.63;;;2.92;;
33104;SDS011;19476;51.448;6.674;2023-09-07T01:00:49;4.70;;;3.00;;
33104;SDS011;19476;51.448;6.674;2023-09-07T01:03:16;5.40;;;3.05;;
33104;SDS011;19476;51.448;6.674;2023-09-07T01:06:03;4.25;;;2.90;;
33104;SDS011;19476;51.448;6.674;2023-09-07T01:08:54;5.97;;;2.67;;
33104;SDS011;19476;51.448;6.674;2023-09-07T01:11:22;4.90;;;3.13;;
33104;SDS011;19476;51.448;6.674;2023-09-07T01:13:49;4.13;;;2.90;;
33104;SDS011;19476;51.448;6.674;2023-09-07T01:16:16;4.40;;;2.80;;
33104;SDS011;19476;51.448;6.674;2023-09-07T01:18:45;5.38;;;2.72;;
33104;SDS011;19476;51.448;6.674;2023-09-07T01:21:11;6.60;;;2.42;;
33104;SDS011;19476;51.448;6.674;2023-09-07T01:23:40;3.92;;;2.83;;
33104;SDS011;19476;51.448;6.674;2023-09-07T01:26:07;5.93;;;2.58;;
33104;SDS011;19476;51.448;6.674;2023-09-07T01:28:34;4.28;;;2.55;;
33104;SDS011;19476;51.448;6.674;2023-09-07T01:31:02;4.32;;;2.72;;
33104;SDS011;19476;51.448;6.674;2023-09-07T01:33:28;4.10;;;2.40;;
33104;SDS011;19476;51.448;6.674;2023-09-07T01:35:54;6.10;;;2.80;;
33104;SDS011;19476;51.448;6.674;2023-09-07T01:38:19;5.28;;;2.80;;
33104;SDS011;19476;51.448;6.674;2023-09-07T01:40:45;3.63;;;2.60;;
33104;SDS011;19476;51.448;6.674;2023-09-07T01:43:11;4.15;;;2.40;;
33104;SDS011;19476;51.448;6.674;2023-09-07T01:45:37;3.00;;;1.92;;
33104;SDS011;19476;51.448;6.674;2023-09-07T01:48:03;4.63;;;2.28;;
33104;SDS011;19476;51.448;6.674;2023-09-07T01:50:30;4.25;;;2.35;;
33104;SDS011;19476;51.448;6.674;2023-09-07T01:52:56;4.82;;;2.80;;
33104;SDS011;19476;51.448;6.674;2023-09-07T01:55:22;3.83;;;2.20;;
33104;SDS011;19476;51.448;6.674;2023-09-07T01:57:48;3.70;;;2.47;;
33104;SDS011;19476;51.448;6.674;2023-09-07T02:00:14;3.67;;;2.15;;
33104;SDS011;19476;51.448;6.674;2023-09-07T02:02:39;4.75;;;2.70;;
33104;SDS011;19476;51.448;6.674;2023-09-07T02:05:05;4.63;;;2.63;;
33104;SDS011;19476;51.448;6.674;2023-09-07T02:07:31;3.65;;;2.60;;
33104;SDS011;19476;51.448;6.674;2023-09-07T02:09:57;4.63;;;2.40;;
33104;SDS011;19476;51.448;6.674;2023-09-07T02:12:23;5.20;;;2.65;;
33104;SDS011;19476;51.448;6.674;2023-09-07T02:14:48;4.07;;;2.38;;
33104;SDS011;19476;51.448;6.674;2023-09-07T02:17:14;4.38;;;2.58;;
33104;SDS011;19476;51.448;6.674;2023-09-07T02:19:43;4.50;;;2.65;;
33104;SDS011;19476;51.448;6.674;2023-09-07T02:22:09;4.63;;;3.00;;
33104;SDS011;19476;51.448;6.674;2023-09-07T02:24:35;3.92;;;2.60;;
33104;SDS011;19476;51.448;6.674;2023-09-07T02:27:01;4.68;;;2.88;;
33104;SDS011;19476;51.448;6.674;2023-09-07T02:29:26;3.75;;;2.53;;
33104;SDS011;19476;51.448;6.674;2023-09-07T02:31:52;5.15;;;2.67;;
33104;SDS011;19476;51.448;6.674;2023-09-07T02:34:18;3.85;;;2.72;;
33104;SDS011;19476;51.448;6.674;2023-09-07T02:36:44;3.67;;;2.30;;
33104;SDS011;19476;51.448;6.674;2023-09-07T02:39:10;4.00;;;2.38;;
33104;SDS011;19476;51.448;6.674;2023-09-07T02:41:37;4.57;;;1.95;;
33104;SDS011;19476;51.448;6.674;2023-09-07T02:44:03;3.60;;;2.30;;
33104;SDS011;19476;51.448;6.674;2023-09-07T02:46:30;4.57;;;2.63;;
33104;SDS011;19476;51.448;6.674;2023-09-07T02:48:58;3.97;;;2.47;;
33104;SDS011;19476;51.448;6.674;2023-09-07T02:51:24;4.63;;;2.80;;
33104;SDS011;19476;51.448;6.674;2023-09-07T02:53:50;5.72;;;2.85;;
33104;SDS011;19476;51.448;6.674;2023-09-07T02:56:17;4.57;;;2.97;;
33104;SDS011;19476;51.448;6.674;2023-09-07T02:58:43;5.53;;;2.53;;
33104;SDS011;19476;51.448;6.674;2023-09-07T03:01:10;4.97;;;2.58;;
33104;SDS011;19476;51.448;6.674;2023-09-07T03:03:36;3.42;;;2.70;;
33104;SDS011;19476;51.448;6.674;2023-09-07T03:06:09;4.50;;;2.67;;
33104;SDS011;19476;51.448;6.674;2023-09-07T03:08:36;4.45;;;2.78;;
33104;SDS011;19476;51.448;6.674;2023-09-07T03:11:03;3.55;;;2.28;;
33104;SDS011;19476;51.448;6.674;2023-09-07T03:13:29;4.60;;;2.80;;
33104;SDS011;19476;51.448;6.674;2023-09-07T03:15:56;4.78;;;2.78;;
33104;SDS011;19476;51.448;6.674;2023-09-07T03:18:22;6.93;;;2.80;;
33104;SDS011;19476;51.448;6.674;2023-09-07T03:20:48;5.30;;;2.50;;
33104;SDS011;19476;51.448;6.674;2023-09-07T03:23:14;4.90;;;2.90;;
33104;SDS011;19476;51.448;6.674;2023-09-07T03:25:40;4.80;;;2.83;;
33104;SDS011;19476;51.448;6.674;2023-09-07T03:28:06;4.57;;;2.97;;
33104;SDS011;19476;51.448;6.674;2023-09-07T03:30:32;6.43;;;2.67;;
33104;SDS011;19476;51.448;6.674;2023-09-07T03:32:58;5.65;;;3.13;;
33104;SDS011;19476;51.448;6.674;2023-09-07T03:35:24;4.15;;;2.40;;
33104;SDS011;19476;51.448;6.674;2023-09-07T03:37:50;6.20;;;2.83;;
33104;SDS011;19476;51.448;6.674;2023-09-07T03:40:16;3.83;;;2.60;;
33104;SDS011;19476;51.448;6.674;2023-09-07T03:42:41;4.80;;;2.63;;
33104;SDS011;19476;51.448;6.674;2023-09-07T03:45:08;4.68;;;2.50;;
33104;SDS011;19476;51.448;6.674;2023-09-07T03:47:34;4.63;;;2.55;;
33104;SDS011;19476;51.448;6.674;2023-09-07T03:50:00;4.30;;;2.90;;
33104;SDS011;19476;51.448;6.674;2023-09-07T03:52:26;4.63;;;2.70;;
33104;SDS011;19476;51.448;6.674;2023-09-07T03:54:55;4.97;;;3.25;;
33104;SDS011;19476;51.448;6.674;2023-09-07T03:57:22;5.05;;;2.80;;
33104;SDS011;19476;51.448;6.674;2023-09-07T04:02:17;4.00;;;2.38;;
33104;SDS011;19476;51.448;6.674;2023-09-07T04:04:43;4.93;;;2.63;;
33104;SDS011;19476;51.448;6.674;2023-09-07T04:07:12;3.63;;;2.42;;
33104;SDS011;19476;51.448;6.674;2023-09-07T04:09:38;5.47;;;2.92;;
33104;SDS011;19476;51.448;6.674;2023-09-07T04:12:04;4.93;;;2.90;;
33104;SDS011;19476;51.448;6.674;2023-09-07T04:14:31;5.47;;;2.85;;
33104;SDS011;19476;51.448;6.674;2023-09-07T04:16:57;4.60;;;2.85;;
33104;SDS011;19476;51.448;6.674;2023-09-07T04:19:23;5.88;;;3.28;;
33104;SDS011;19476;51.448;6.674;2023-09-07T04:21:49;4.88;;;2.80;;
33104;SDS011;19476;51.448;6.674;2023-09-07T04:24:16;6.03;;;3.40;;
33104;SDS011;19476;51.448;6.674;2023-09-07T04:26:41;5.72;;;2.85;;
33104;SDS011;19476;51.448;6.674;2023-09-07T04:29:07;4.78;;;2.70;;
33104;SDS011;19476;51.448;6.674;2023-09-07T04:31:33;5.18;;;3.00;;
33104;SDS011;19476;51.448;6.674;2023-09-07T04:34:00;4.30;;;2.53;;
33104;SDS011;19476;51.448;6.674;2023-09-07T04:36:27;5.60;;;3.00;;
33104;SDS011;19476;51.448;6.674;2023-09-07T04:38:53;7.35;;;3.35;;
33104;SDS011;19476;51.448;6.674;2023-09-07T04:41:18;6.15;;;3.28;;
33104;SDS011;19476;51.448;6.674;2023-09-07T04:43:44;5.55;;;2.60;;
33104;SDS011;19476;51.448;6.674;2023-09-07T04:46:13;3.95;;;2.50;;
33104;SDS011;19476;51.448;6.674;2023-09-07T04:48:40;4.55;;;2.70;;
33104;SDS011;19476;51.448;6.674;2023-09-07T04:51:06;5.43;;;2.50;;
33104;SDS011;19476;51.448;6.674;2023-09-07T04:53:35;5.05;;;2.83;;
33104;SDS011;19476;51.448;6.674;2023-09-07T04:56:02;3.88;;;2.45;;
33104;SDS011;19476;51.448;6.674;2023-09-07T04:58:29;5.07;;;2.45;;
33104;SDS011;19476;51.448;6.674;2023-09-07T05:01:01;5.95;;;3.10;;
33104;SDS011;19476;51.448;6.674;2023-09-07T05:03:28;5.05;;;2.72;;
33104;SDS011;19476;51.448;6.674;2023-09-07T05:05:54;4.63;;;2.60;;
33104;SDS011;19476;51.448;6.674;2023-09-07T05:08:20;5.03;;;2.72;;
33104;SDS011;19476;51.448;6.674;2023-09-07T05:10:48;7.30;;;2.88;;
33104;SDS011;19476;51.448;6.674;2023-09-07T05:13:13;5.22;;;3.00;;
33104;SDS011;19476;51.448;6.674;2023-09-07T05:15:49;4.93;;;2.85;;
33104;SDS011;19476;51.448;6.674;2023-09-07T05:18:16;4.95;;;3.00;;
33104;SDS011;19476;51.448;6.674;2023-09-07T05:20:43;4.45;;;2.47;;
33104;SDS011;19476;51.448;6.674;2023-09-07T05:23:12;4.88;;;3.03;;
33104;SDS011;19476;51.448;6.674;2023-09-07T05:25:44;4.78;;;2.47;;
33104;SDS011;19476;51.448;6.674;2023-09-07T05:28:15;4.65;;;2.75;;
33104;SDS011;19476;51.448;6.674;2023-09-07T05:30:41;6.88;;;2.97;;
33104;SDS011;19476;51.448;6.674;2023-09-07T05:33:10;5.60;;;2.67;;
33104;SDS011;19476;51.448;6.674;2023-09-07T05:38:06;4.30;;;2.47;;
33104;SDS011;19476;51.448;6.674;2023-09-07T05:40:35;4.05;;;2.80;;
33104;SDS011;19476;51.448;6.674;2023-09-07T05:45:29;4.10;;;2.67;;
33104;SDS011;19476;51.448;6.674;2023-09-07T05:47:56;3.78;;;2.47;;
33104;SDS011;19476;51.448;6.674;2023-09-07T05:50:21;5.35;;;2.55;;
33104;SDS011;19476;51.448;6.674;2023-09-07T05:52:47;6.32;;;2.97;;
33104;SDS011;19476;51.448;6.674;2023-09-07T05:55:13;4.57;;;2.42;;
33104;SDS011;19476;51.448;6.674;2023-09-07T05:57:39;4.85;;;2.63;;
33104;SDS011;19476;51.448;6.674;2023-09-07T06:00:05;4.22;;;2.53;;
33104;SDS011;19476;51.448;6.674;2023-09-07T06:02:31;7.43;;;3.38;;
33104;SDS011;19476;51.448;6.674;2023-09-07T06:04:57;4.18;;;2.45;;
33104;SDS011;19476;51.448;6.674;2023-09-07T06:07:23;6.35;;;2.95;;
33104;SDS011;19476;51.448;6.674;2023-09-07T06:09:49;4.72;;;2.95;;
33104;SDS011;19476;51.448;6.674;2023-09-07T06:12:15;5.18;;;2.85;;
33104;SDS011;19476;51.448;6.674;2023-09-07T06:14:41;7.38;;;2.72;;
33104;SDS011;19476;51.448;6.674;2023-09-07T06:17:06;6.15;;;3.00;;
33104;SDS011;19476;51.448;6.674;2023-09-07T06:19:32;4.47;;;2.65;;
33104;SDS011;19476;51.448;6.674;2023-09-07T06:21:59;6.18;;;2.75;;
33104;SDS011;19476;51.448;6.674;2023-09-07T06:24:24;5.22;;;2.58;;
33104;SDS011;19476;51.448;6.674;2023-09-07T06:26:50;5.65;;;2.83;;
33104;SDS011;19476;51.448;6.674;2023-09-07T06:29:16;4.97;;;3.17;;
33104;SDS011;19476;51.448;6.674;2023-09-07T06:31:42;3.33;;;2.45;;
33104;SDS011;19476;51.448;6.674;2023-09-07T06:34:07;5.00;;;2.80;;
33104;SDS011;19476;51.448;6.674;2023-09-07T06:36:33;5.35;;;2.80;;
33104;SDS011;19476;51.448;6.674;2023-09-07T06:38:59;4.65;;;2.92;;
33104;SDS011;19476;51.448;6.674;2023-09-07T06:41:25;6.18;;;2.92;;
33104;SDS011;19476;51.448;6.674;2023-09-07T06:43:51;6.18;;;2.97;;
33104;SDS011;19476;51.448;6.674;2023-09-07T06:46:17;5.25;;;2.83;;
33104;SDS011;19476;51.448;6.674;2023-09-07T06:48:42;5.25;;;3.20;;
33104;SDS011;19476;51.448;6.674;2023-09-07T06:51:08;6.00;;;3.00;;
33104;SDS011;19476;51.448;6.674;2023-09-07T06:53:34;9.05;;;3.35;;
33104;SDS011;19476;51.448;6.674;2023-09-07T06:56:00;5.75;;;3.13;;
33104;SDS011;19476;51.448;6.674;2023-09-07T06:58:27;5.07;;;3.08;;
33104;SDS011;19476;51.448;6.674;2023-09-07T07:01:00;7.13;;;3.50;;
33104;SDS011;19476;51.448;6.674;2023-09-07T07:03:27;5.40;;;3.15;;
33104;SDS011;19476;51.448;6.674;2023-09-07T07:05:54;6.63;;;3.20;;
33104;SDS011;19476;51.448;6.674;2023-09-07T07:08:20;7.68;;;3.67;;
33104;SDS011;19476;51.448;6.674;2023-09-07T07:10:46;7.10;;;3.15;;
33104;SDS011;19476;51.448;6.674;2023-09-07T07:13:11;6.70;;;2.88;;
33104;SDS011;19476;51.448;6.674;2023-09-07T07:15:38;6.10;;;3.22;;
33104;SDS011;19476;51.448;6.674;2023-09-07T07:18:04;7.45;;;3.72;;
33104;SDS011;19476;51.448;6.674;2023-09-07T07:20:34;7.20;;;2.63;;
33104;SDS011;19476;51.448;6.674;2023-09-07T07:23:00;7.07;;;3.47;;
33104;SDS011;19476;51.448;6.674;2023-09-07T07:25:26;6.25;;;3.63;;
33104;SDS011;19476;51.448;6.674;2023-09-07T07:27:52;6.57;;;3.17;;
33104;SDS011;19476;51.448;6.674;2023-09-07T07:30:18;4.82;;;3.08;;
33104;SDS011;19476;51.448;6.674;2023-09-07T07:32:44;7.72;;;3.63;;
33104;SDS011;19476;51.448;6.674;2023-09-07T07:35:10;6.85;;;3.55;;
33104;SDS011;19476;51.448;6.674;2023-09-07T07:37:36;7.13;;;3.50;;
33104;SDS011;19476;51.448;6.674;2023-09-07T07:40:01;7.28;;;3.45;;
33104;SDS011;19476;51.448;6.674;2023-09-07T07:42:27;8.52;;;3.40;;
33104;SDS011;19476;51.448;6.674;2023-09-07T07:44:53;8.60;;;3.33;;
33104;SDS011;19476;51.448;6.674;2023-09-07T07:47:19;6.97;;;3.13;;
33104;SDS011;19476;51.448;6.674;2023-09-07T07:49:45;5.50;;;3.05;;
33104;SDS011;19476;51.448;6.674;2023-09-07T07:52:10;5.57;;;2.90;;
33104;SDS011;19476;51.448;6.674;2023-09-07T07:54:36;8.40;;;3.08;;
33104;SDS011;19476;51.448;6.674;2023-09-07T07:57:02;4.82;;;2.70;;
33104;SDS011;19476;51.448;6.674;2023-09-07T07:59:28;5.05;;;2.83;;
33104;SDS011;19476;51.448;6.674;2023-09-07T08:01:54;4.95;;;2.90;;
33104;SDS011;19476;51.448;6.674;2023-09-07T08:04:20;4.97;;;2.95;;
33104;SDS011;19476;51.448;6.674;2023-09-07T08:06:45;4.60;;;2.70;;
33104;SDS011;19476;51.448;6.674;2023-09-07T08:09:11;5.43;;;2.63;;
33104;SDS011;19476;51.448;6.674;2023-09-07T08:11:38;4.60;;;2.90;;
33104;SDS011;19476;51.448;6.674;2023-09-07T08:14:04;4.93;;;2.78;;
33104;SDS011;19476;51.448;6.674;2023-09-07T08:16:30;4.03;;;2.40;;
33104;SDS011;19476;51.448;6.674;2023-09-07T08:18:56;6.90;;;2.97;;
33104;SDS011;19476;51.448;6.674;2023-09-07T08:21:21;6.47;;;3.28;;
33104;SDS011;19476;51.448;6.674;2023-09-07T08:23:47;4.43;;;2.80;;
33104;SDS011;19476;51.448;6.674;2023-09-07T08:26:13;6.38;;;2.83;;
33104;SDS011;19476;51.448;6.674;2023-09-07T08:28:40;5.40;;;2.70;;
33104;SDS011;19476;51.448;6.674;2023-09-07T08:31:05;4.30;;;2.80;;
33104;SDS011;19476;51.448;6.674;2023-09-07T08:33:31;4.70;;;2.83;;
33104;SDS011;19476;51.448;6.674;2023-09-07T08:36:05;3.95;;;2.80;;
33104;SDS011;19476;51.448;6.674;2023-09-07T08:38:31;5.10;;;3.08;;
33104;SDS011;19476;51.448;6.674;2023-09-07T08:41:00;4.50;;;3.10;;
33104;SDS011;19476;51.448;6.674;2023-09-07T08:43:32;5.75;;;3.35;;
33104;SDS011;19476;51.448;6.674;2023-09-07T08:46:13;9.40;;;3.80;;
33104;SDS011;19476;51.448;6.674;2023-09-07T08:51:07;6.05;;;3.60;;
33104;SDS011;19476;51.448;6.674;2023-09-07T08:53:37;4.53;;;2.88;;
33104;SDS011;19476;51.448;6.674;2023-09-07T08:56:04;5.13;;;3.20;;
33104;SDS011;19476;51.448;6.674;2023-09-07T08:58:31;7.50;;;3.60;;
33104;SDS011;19476;51.448;6.674;2023-09-07T09:00:57;5.75;;;3.65;;
33104;SDS011;19476;51.448;6.674;2023-09-07T09:03:23;4.68;;;3.08;;
33104;SDS011;19476;51.448;6.674;2023-09-07T09:05:50;4.63;;;3.22;;
33104;SDS011;19476;51.448;6.674;2023-09-07T09:08:17;5.60;;;3.35;;
33104;SDS011;19476;51.448;6.674;2023-09-07T09:10:59;6.60;;;3.05;;
33104;SDS011;19476;51.448;6.674;2023-09-07T09:13:29;6.40;;;3.80;;
33104;SDS011;19476;51.448;6.674;2023-09-07T09:15:58;5.72;;;3.47;;
33104;SDS011;19476;51.448;6.674;2023-09-07T09:18:25;8.07;;;3.95;;
33104;SDS011;19476;51.448;6.674;2023-09-07T09:20:52;5.13;;;3.47;;
33104;SDS011;19476;51.448;6.674;2023-09-07T09:23:19;5.47;;;3.08;;
33104;SDS011;19476;51.448;6.674;2023-09-07T09:25:47;5.65;;;3.03;;
33104;SDS011;19476;51.448;6.674;2023-09-07T09:28:13;4.18;;;2.90;;
33104;SDS011;19476;51.448;6.674;2023-09-07T09:30:39;4.78;;;3.10;;
33104;SDS011;19476;51.448;6.674;2023-09-07T09:33:09;4.35;;;3.42;;
33104;SDS011;19476;51.448;6.674;2023-09-07T09:35:35;6.30;;;3.15;;
33104;SDS011;19476;51.448;6.674;2023-09-07T09:38:01;4.68;;;2.80;;
33104;SDS011;19476;51.448;6.674;2023-09-07T09:40:30;4.18;;;3.17;;
33104;SDS011;19476;51.448;6.674;2023-09-07T09:43:00;4.22;;;3.15;;
33104;SDS011;19476;51.448;6.674;2023-09-07T09:45:28;3.95;;;2.90;;
33104;SDS011;19476;51.448;6.674;2023-09-07T09:47:55;4.43;;;2.85;;
33104;SDS011;19476;51.448;6.674;2023-09-07T09:50:25;4.88;;;3.17;;
33104;SDS011;19476;51.448;6.674;2023-09-07T09:52:55;3.80;;;2.85;;
33104;SDS011;19476;51.448;6.674;2023-09-07T09:55:22;4.68;;;3.05;;
33104;SDS011;19476;51.448;6.674;2023-09-07T09:57:49;3.92;;;2.97;;
33104;SDS011;19476;51.448;6.674;2023-09-07T10:00:15;5.07;;;3.28;;
33104;SDS011;19476;51.448;6.674;2023-09-07T10:02:54;4.85;;;3.25;;
33104;SDS011;19476;51.448;6.674;2023-09-07T10:05:26;4.10;;;2.97;;
33104;SDS011;19476;51.448;6.674;2023-09-07T10:07:52;5.60;;;3.53;;
33104;SDS011;19476;51.448;6.674;2023-09-07T10:10:19;4.72;;;2.97;;
33104;SDS011;19476;51.448;6.674;2023-09-07T10:12:50;4.25;;;3.35;;
33104;SDS011;19476;51.448;6.674;2023-09-07T10:15:25;5.95;;;3.33;;
33104;SDS011;19476;51.448;6.674;2023-09-07T10:20:51;8.32;;;3.85;;
33104;SDS011;19476;51.448;6.674;2023-09-07T10:23:21;4.47;;;3.50;;
33104;SDS011;19476;51.448;6.674;2023-09-07T10:25:49;5.20;;;3.35;;
33104;SDS011;19476;51.448;6.674;2023-09-07T10:28:20;8.07;;;3.83;;
33104;SDS011;19476;51.448;6.674;2023-09-07T10:33:25;8.43;;;3.45;;
33104;SDS011;19476;51.448;6.674;2023-09-07T10:35:51;6.28;;;2.97;;
33104;SDS011;19476;51.448;6.674;2023-09-07T10:38:17;4.63;;;3.40;;
33104;SDS011;19476;51.448;6.674;2023-09-07T10:40:44;4.85;;;3.28;;
33104;SDS011;19476;51.448;6.674;2023-09-07T10:43:12;4.15;;;3.17;;
33104;SDS011;19476;51.448;6.674;2023-09-07T10:45:38;5.07;;;3.60;;
33104;SDS011;19476;51.448;6.674;2023-09-07T10:48:05;4.30;;;3.30;;
33104;SDS011;19476;51.448;6.674;2023-09-07T10:50:41;4.93;;;3.55;;
33104;SDS011;19476;51.448;6.674;2023-09-07T10:53:12;4.53;;;3.15;;
33104;SDS011;19476;51.448;6.674;2023-09-07T10:55:39;6.40;;;3.78;;
33104;SDS011;19476;51.448;6.674;2023-09-07T10:58:06;4.63;;;3.63;;
33104;SDS011;19476;51.448;6.674;2023-09-07T11:00:34;3.60;;;3.03;;
33104;SDS011;19476;51.448;6.674;2023-09-07T11:03:06;4.90;;;3.50;;
33104;SDS011;19476;51.448;6.674;2023-09-07T11:05:33;5.55;;;3.20;;
33104;SDS011;19476;51.448;6.674;2023-09-07T11:08:03;4.78;;;3.83;;
33104;SDS011;19476;51.448;6.674;2023-09-07T11:10:32;4.90;;;3.40;;
33104;SDS011;19476;51.448;6.674;2023-09-07T11:13:01;5.25;;;3.63;;
33104;SDS011;19476;51.448;6.674;2023-09-07T11:15:29;5.13;;;3.65;;
33104;SDS011;19476;51.448;6.674;2023-09-07T11:17:55;4.38;;;3.35;;
33104;SDS011;19476;51.448;6.674;2023-09-07T11:20:22;4.57;;;3.40;;
33104;SDS011;19476;51.448;6.674;2023-09-07T11:22:49;4.70;;;3.67;;
33104;SDS011;19476;51.448;6.674;2023-09-07T11:25:15;4.95;;;3.55;;
33104;SDS011;19476;51.448;6.674;2023-09-07T11:27:41;4.55;;;3.35;;
33104;SDS011;19476;51.448;6.674;2023-09-07T11:30:10;5.25;;;3.10;;
33104;SDS011;19476;51.448;6.674;2023-09-07T11:32:36;6.55;;;3.63;;
33104;SDS011;19476;51.448;6.674;2023-09-07T11:35:03;4.28;;;2.97;;
33104;SDS011;19476;51.448;6.674;2023-09-07T11:37:33;4.53;;;3.00;;
33104;SDS011;19476;51.448;6.674;2023-09-07T11:40:00;4.22;;;3.10;;
33104;SDS011;19476;51.448;6.674;2023-09-07T11:42:26;5.57;;;3.67;;
33104;SDS011;19476;51.448;6.674;2023-09-07T11:44:52;4.15;;;3.10;;
33104;SDS011;19476;51.448;6.674;2023-09-07T11:47:18;4.45;;;3.33;;
33104;SDS011;19476;51.448;6.674;2023-09-07T11:49:43;3.97;;;2.95;;
33104;SDS011;19476;51.448;6.674;2023-09-07T11:52:09;5.97;;;3.10;;
33104;SDS011;19476;51.448;6.674;2023-09-07T11:54:35;7.60;;;3.42;;
33104;SDS011;19476;51.448;6.674;2023-09-07T11:57:02;4.30;;;3.10;;
33104;SDS011;19476;51.448;6.674;2023-09-07T11:59:28;4.57;;;3.28;;
33104;SDS011;19476;51.448;6.674;2023-09-07T12:01:54;4.38;;;3.33;;
33104;SDS011;19476;51.448;6.674;2023-09-07T12:04:20;4.63;;;3.28;;
33104;SDS011;19476;51.448;6.674;2023-09-07T12:06:46;4.05;;;3.00;;
33104;SDS011;19476;51.448;6.674;2023-09-07T12:09:12;4.22;;;3.20;;
33104;SDS011;19476;51.448;6.674;2023-09-07T12:11:37;5.45;;;3.80;;
33104;SDS011;19476;51.448;6.674;2023-09-07T12:14:03;4.78;;;3.55;;
33104;SDS011;19476;51.448;6.674;2023-09-07T12:16:30;5.28;;;3.58;;
33104;SDS011;19476;51.448;6.674;2023-09-07T12:18:56;4.70;;;3.08;;
33104;SDS011;19476;51.448;6.674;2023-09-07T12:21:22;3.83;;;3.10;;
33104;SDS011;19476;51.448;6.674;2023-09-07T12:23:48;3.20;;;2.65;;
33104;SDS011;19476;51.448;6.674;2023-09-07T12:26:13;4.03;;;3.08;;
33104;SDS011;19476;51.448;6.674;2023-09-07T12:28:44;4.57;;;2.83;;
33104;SDS011;19476;51.448;6.674;2023-09-07T12:31:10;5.82;;;3.58;;
33104;SDS011;19476;51.448;6.674;2023-09-07T12:33:36;6.53;;;3.40;;
33104;SDS011;19476;51.448;6.674;2023-09-07T12:36:03;3.88;;;3.05;;
33104;SDS011;19476;51.448;6.674;2023-09-07T12:38:30;3.10;;;2.80;;
33104;SDS011;19476;51.448;6.674;2023-09-07T12:40:56;4.40;;;3.55;;
33104;SDS011;19476;51.448;6.674;2023-09-07T12:43:21;4.32;;;3.13;;
33104;SDS011;19476;51.448;6.674;2023-09-07T12:45:49;3.53;;;3.17;;
33104;SDS011;19476;51.448;6.674;2023-09-07T12:48:15;4.50;;;3.45;;
33104;SDS011;19476;51.448;6.674;2023-09-07T12:50:41;4.60;;;3.38;;
33104;SDS011;19476;51.448;6.674;2023-09-07T12:53:08;5.47;;;3.38;;
33104;SDS011;19476;51.448;6.674;2023-09-07T12:55:34;3.88;;;3.00;;
33104;SDS011;19476;51.448;6.674;2023-09-07T12:58:00;5.20;;;3.50;;
33104;SDS011;19476;51.448;6.674;2023-09-07T13:00:26;3.67;;;2.92;;
33104;SDS011;19476;51.448;6.674;2023-09-07T13:02:53;4.90;;;3.20;;
33104;SDS011;19476;51.448;6.674;2023-09-07T13:05:20;6.50;;;3.60;;
33104;SDS011;19476;51.448;6.674;2023-09-07T13:07:45;4.28;;;3.42;;
33104;SDS011;19476;51.448;6.674;2023-09-07T13:10:11;4.68;;;3.50;;
33104;SDS011;19476;51.448;6.674;2023-09-07T13:12:37;6.95;;;4.03;;
33104;SDS011;19476;51.448;6.674;2023-09-07T13:15:04;4.75;;;3.38;;
33104;SDS011;19476;51.448;6.674;2023-09-07T13:17:30;4.53;;;3.40;;
33104;SDS011;19476;51.448;6.674;2023-09-07T13:19:56;4.53;;;3.28;;
33104;SDS011;19476;51.448;6.674;2023-09-07T13:22:21;6.20;;;4.35;;
33104;SDS011;19476;51.448;6.674;2023-09-07T13:24:48;6.88;;;3.80;;
33104;SDS011;19476;51.448;6.674;2023-09-07T13:27:15;6.07;;;3.78;;
33104;SDS011;19476;51.448;6.674;2023-09-07T13:29:40;5.22;;;3.72;;
33104;SDS011;19476;51.448;6.674;2023-09-07T13:32:06;3.95;;;3.33;;
33104;SDS011;19476;51.448;6.674;2023-09-07T13:34:32;6.60;;;3.47;;
33104;SDS011;19476;51.448;6.674;2023-09-07T13:36:58;4.70;;;3.72;;
33104;SDS011;19476;51.448;6.674;2023-09-07T13:39:24;5.18;;;3.58;;
33104;SDS011;19476;51.448;6.674;2023-09-07T13:41:49;5.40;;;3.65;;
33104;SDS011;19476;51.448;6.674;2023-09-07T13:44:15;4.05;;;3.15;;
33104;SDS011;19476;51.448;6.674;2023-09-07T13:46:42;4.47;;;3.30;;
33104;SDS011;19476;51.448;6.674;2023-09-07T13:49:09;3.63;;;3.15;;
33104;SDS011;19476;51.448;6.674;2023-09-07T13:51:35;3.90;;;3.13;;
33104;SDS011;19476;51.448;6.674;2023-09-07T13:54:06;3.33;;;2.90;;
33104;SDS011;19476;51.448;6.674;2023-09-07T13:56:33;5.38;;;4.20;;
33104;SDS011;19476;51.448;6.674;2023-09-07T13:59:00;5.60;;;4.10;;
33104;SDS011;19476;51.448;6.674;2023-09-07T14:01:25;4.63;;;3.65;;
33104;SDS011;19476;51.448;6.674;2023-09-07T14:03:51;4.10;;;3.47;;
33104;SDS011;19476;51.448;6.674;2023-09-07T14:06:18;4.18;;;3.40;;
33104;SDS011;19476;51.448;6.674;2023-09-07T14:08:47;5.10;;;3.60;;
33104;SDS011;19476;51.448;6.674;2023-09-07T14:11:13;4.93;;;3.70;;
33104;SDS011;19476;51.448;6.674;2023-09-07T14:13:39;4.60;;;3.92;;
33104;SDS011;19476;51.448;6.674;2023-09-07T14:16:05;5.70;;;3.85;;
33104;SDS011;19476;51.448;6.674;2023-09-07T14:18:31;3.97;;;3.47;;
33104;SDS011;19476;51.448;6.674;2023-09-07T14:20:56;4.88;;;3.78;;
33104;SDS011;19476;51.448;6.674;2023-09-07T14:23:24;5.97;;;4.28;;
33104;SDS011;19476;51.448;6.674;2023-09-07T14:25:51;4.68;;;3.67;;
33104;SDS011;19476;51.448;6.674;2023-09-07T14:28:17;5.07;;;4.07;;
33104;SDS011;19476;51.448;6.674;2023-09-07T14:30:43;5.15;;;3.78;;
33104;SDS011;19476;51.448;6.674;2023-09-07T14:33:08;4.78;;;3.78;;
33104;SDS011;19476;51.448;6.674;2023-09-07T14:35:34;5.15;;;4.10;;
33104;SDS011;19476;51.448;6.674;2023-09-07T14:38:00;8.40;;;4.15;;
33104;SDS011;19476;51.448;6.674;2023-09-07T14:40:26;5.68;;;4.22;;
33104;SDS011;19476;51.448;6.674;2023-09-07T14:42:52;7.53;;;4.20;;
33104;SDS011;19476;51.448;6.674;2023-09-07T14:45:24;6.85;;;4.07;;
33104;SDS011;19476;51.448;6.674;2023-09-07T14:47:53;4.93;;;4.00;;
33104;SDS011;19476;51.448;6.674;2023-09-07T14:50:19;5.65;;;3.88;;
33104;SDS011;19476;51.448;6.674;2023-09-07T14:52:45;4.82;;;4.30;;
33104;SDS011;19476;51.448;6.674;2023-09-07T14:55:13;4.90;;;4.00;;
33104;SDS011;19476;51.448;6.674;2023-09-07T14:57:41;6.32;;;3.92;;
33104;SDS011;19476;51.448;6.674;2023-09-07T15:00:08;4.35;;;3.53;;
33104;SDS011;19476;51.448;6.674;2023-09-07T15:02:35;5.60;;;4.07;;